createdAt,value
2022-10-03T00:00:06.265Z,1015.1
2022-10-03T00:05:03.214Z,1015.13
2022-10-03T00:10:05.744Z,1015.11
2022-10-03T00:15:03.251Z,1015.12
2022-10-03T00:20:05.277Z,1015.14
2022-10-03T00:25:03.148Z,1015.06
2022-10-03T00:30:04.783Z,1015.01
2022-10-03T00:35:03.237Z,1015.0
2022-10-03T00:40:05.254Z,1015.05
2022-10-03T00:45:03.548Z,1015.1
2022-10-03T00:50:06.188Z,1015.12
2022-10-03T00:55:03.398Z,1015.08
2022-10-03T01:00:05.253Z,1015.12
2022-10-03T01:05:03.290Z,1015.14
2022-10-03T01:10:04.851Z,1015.18
2022-10-03T01:15:03.272Z,1015.13
2022-10-03T01:20:04.793Z,1015.15
2022-10-03T01:25:03.357Z,1015.16
2022-10-03T01:30:04.752Z,1015.24
2022-10-03T01:35:03.181Z,1015.31
2022-10-03T01:40:05.726Z,1015.3
2022-10-03T01:45:03.264Z,1015.35
2022-10-03T01:50:04.195Z,1015.27
2022-10-03T01:55:03.113Z,1015.2
2022-10-03T02:00:05.691Z,1015.24
2022-10-03T02:05:03.219Z,1015.24
2022-10-03T02:10:04.124Z,1015.22
2022-10-03T02:15:03.268Z,1015.25
2022-10-03T02:20:04.851Z,1015.21
2022-10-03T02:25:03.199Z,1015.19
2022-10-03T02:30:04.824Z,1015.08
2022-10-03T02:35:03.394Z,1015.07
2022-10-03T02:40:03.924Z,1015.05
2022-10-03T02:45:03.250Z,1015.05
2022-10-03T02:50:04.043Z,1015.05
2022-10-03T02:55:03.408Z,1015.05
2022-10-03T03:00:05.772Z,1015.14
2022-10-03T03:05:03.430Z,1015.15
2022-10-03T03:10:04.101Z,1015.2
2022-10-03T03:15:03.392Z,1015.17
2022-10-03T03:20:04.006Z,1015.16
2022-10-03T03:25:03.252Z,1015.19
2022-10-03T03:30:04.351Z,1015.15
2022-10-03T03:35:04.303Z,1015.14
2022-10-03T03:40:03.988Z,1015.28
2022-10-03T03:45:03.330Z,1015.2
2022-10-03T03:50:04.020Z,1015.21
2022-10-03T03:55:03.321Z,1015.28
2022-10-03T04:00:04.299Z,1015.24
2022-10-03T04:05:03.191Z,1015.18
2022-10-03T04:10:04.268Z,1015.12
2022-10-03T04:15:03.245Z,1015.05
2022-10-03T04:20:03.979Z,1014.92
2022-10-03T04:25:03.381Z,1014.93
2022-10-03T04:30:04.309Z,1014.91
2022-10-03T04:35:03.177Z,1014.9
2022-10-03T04:40:04.009Z,1014.9
2022-10-03T04:45:03.252Z,1014.84
2022-10-03T04:50:04.316Z,1014.8
2022-10-03T04:55:03.295Z,1014.72
2022-10-03T05:00:04.536Z,1014.63
2022-10-03T05:05:03.173Z,1014.59
2022-10-03T05:10:06.602Z,1014.45
2022-10-03T05:15:03.219Z,1014.37
2022-10-03T05:20:04.039Z,1014.31
2022-10-03T05:25:03.104Z,1014.28
2022-10-03T05:30:04.460Z,1014.24
2022-10-03T05:35:03.185Z,1014.2
2022-10-03T05:40:04.164Z,1014.14
2022-10-03T05:45:03.232Z,1014.03
2022-10-03T05:50:08.006Z,1013.96
2022-10-03T05:55:03.355Z,1013.94
2022-10-03T06:00:04.090Z,1013.93
2022-10-03T06:05:03.257Z,1013.93
2022-10-03T06:10:04.055Z,1013.98
2022-10-03T06:15:03.266Z,1013.91
2022-10-03T06:20:04.138Z,1013.9
2022-10-03T06:25:03.323Z,1013.93
2022-10-03T06:30:04.996Z,1013.96
2022-10-03T06:35:03.141Z,1013.92
2022-10-03T06:40:07.546Z,1014.0
2022-10-03T06:45:03.208Z,1014.07
2022-10-03T06:50:03.895Z,1013.99
2022-10-03T06:55:03.137Z,1014.01
2022-10-03T07:00:04.567Z,1013.98
2022-10-03T07:05:03.388Z,1013.97
2022-10-03T07:10:04.072Z,1013.99
2022-10-03T07:15:03.180Z,1014.02
2022-10-03T07:20:03.979Z,1014.05
2022-10-03T07:25:03.280Z,1014.06
2022-10-03T07:30:04.475Z,1014.13
2022-10-03T07:35:03.175Z,1014.14
2022-10-03T07:40:04.137Z,1014.16
2022-10-03T07:45:03.236Z,1014.21
2022-10-03T07:50:03.959Z,1014.28
2022-10-03T07:55:03.335Z,1014.32
2022-10-03T08:00:05.067Z,1014.32
2022-10-03T08:05:03.322Z,1014.35
2022-10-03T08:10:03.910Z,1014.45
2022-10-03T08:15:03.180Z,1014.45
2022-10-03T08:20:03.981Z,1014.51
2022-10-03T08:25:04.531Z,1014.58
2022-10-03T08:30:04.863Z,1014.59
2022-10-03T08:35:03.118Z,1014.59
2022-10-03T08:40:04.061Z,1014.59
2022-10-03T08:45:03.395Z,1014.62
2022-10-03T08:50:05.626Z,1014.71
2022-10-03T08:55:03.306Z,1014.73
2022-10-03T09:00:04.595Z,1014.72
2022-10-03T09:05:03.141Z,1014.75
2022-10-03T09:10:03.913Z,1014.8
2022-10-03T09:15:03.171Z,1014.89
2022-10-03T09:20:03.975Z,1014.94
2022-10-03T09:25:03.170Z,1014.99
2022-10-03T09:30:05.004Z,1015.11
2022-10-03T09:35:06.928Z,1015.16
2022-10-03T09:40:04.126Z,1015.16
2022-10-03T09:45:04.220Z,1015.22
2022-10-03T09:50:03.993Z,1015.24
2022-10-03T09:55:03.272Z,1015.25
2022-10-03T10:00:04.950Z,1015.26
2022-10-03T10:05:03.482Z,1015.37
2022-10-03T10:10:03.940Z,1015.49
2022-10-03T10:15:03.193Z,1015.42
2022-10-03T10:20:04.089Z,1015.5
2022-10-03T10:25:03.253Z,1015.58
2022-10-03T10:30:04.336Z,1015.62
2022-10-03T10:35:03.085Z,1015.61
2022-10-03T10:40:04.048Z,1015.61
2022-10-03T10:45:03.106Z,1015.67
2022-10-03T10:50:04.110Z,1015.64
2022-10-03T10:55:03.304Z,1015.63
2022-10-03T11:00:04.681Z,1015.55
2022-10-03T11:05:03.278Z,1015.52
2022-10-03T11:10:04.246Z,1015.5
2022-10-03T11:15:03.167Z,1015.52
2022-10-03T11:20:03.927Z,1015.54
2022-10-03T11:25:03.346Z,1015.52
2022-10-03T11:30:04.702Z,1015.55
2022-10-03T11:35:03.339Z,1015.54
2022-10-03T11:40:03.965Z,1015.57
2022-10-03T11:45:03.157Z,1015.57
2022-10-03T11:50:04.291Z,1015.57
2022-10-03T11:55:03.292Z,1015.57
2022-10-03T12:00:04.444Z,1015.57
2022-10-03T12:05:03.315Z,1015.56
2022-10-03T12:10:03.983Z,1015.59
2022-10-03T12:15:03.192Z,1015.56
2022-10-03T12:20:04.157Z,1015.52
2022-10-03T12:25:03.234Z,1015.37
2022-10-03T12:30:04.520Z,1015.29
2022-10-03T12:35:03.066Z,1015.29
2022-10-03T12:40:04.109Z,1015.26
2022-10-03T12:45:03.172Z,1015.27
2022-10-03T12:50:04.054Z,1015.15
2022-10-03T12:55:03.213Z,1015.14
2022-10-03T13:00:06.667Z,1015.11
2022-10-03T13:05:03.142Z,1015.08
2022-10-03T13:10:04.040Z,1015.07
2022-10-03T13:15:03.196Z,1015.04
2022-10-03T13:20:03.978Z,1014.93
2022-10-03T13:25:03.246Z,1014.84
2022-10-03T13:30:04.706Z,1014.81
2022-10-03T13:35:03.384Z,1014.71
2022-10-03T13:40:04.077Z,1014.66
2022-10-03T13:45:03.314Z,1014.65
2022-10-03T13:50:04.140Z,1014.69
2022-10-03T13:55:03.250Z,1014.59
2022-10-03T14:00:04.505Z,1014.53
2022-10-03T14:05:03.325Z,1014.47
2022-10-03T14:10:05.115Z,1014.4
2022-10-03T14:15:03.145Z,1014.37
2022-10-03T14:20:04.005Z,1014.36
2022-10-03T14:25:03.215Z,1014.32
2022-10-03T14:30:04.625Z,1014.24
2022-10-03T14:35:03.415Z,1014.24
2022-10-03T14:40:04.089Z,1014.21
2022-10-03T14:45:03.271Z,1014.14
2022-10-03T14:50:04.108Z,1014.08
2022-10-03T14:55:03.263Z,1014.04
2022-10-03T15:00:04.649Z,1014.03
2022-10-03T15:05:03.336Z,1013.91
2022-10-03T15:10:04.076Z,1013.86
2022-10-03T15:15:03.202Z,1013.81
2022-10-03T15:20:04.028Z,1013.69
2022-10-03T15:25:03.225Z,1013.6
2022-10-03T15:30:04.379Z,1013.46
2022-10-03T15:35:03.336Z,1013.35
2022-10-03T15:40:04.259Z,1013.22
2022-10-03T15:45:03.172Z,1013.08
2022-10-03T15:50:03.959Z,1012.93
2022-10-03T15:55:11.337Z,1012.79
2022-10-03T16:00:04.699Z,1012.73
2022-10-03T16:05:03.333Z,1012.65
2022-10-03T16:10:04.257Z,1012.6
2022-10-03T16:15:03.144Z,1012.48
2022-10-03T16:20:04.105Z,1012.4
2022-10-03T16:25:03.297Z,1012.31
2022-10-03T16:30:04.105Z,1012.26
2022-10-03T16:35:03.301Z,1012.09
2022-10-03T16:40:04.109Z,1011.96
2022-10-03T16:45:03.346Z,1011.83
2022-10-03T16:50:04.100Z,1011.74
2022-10-03T16:55:03.206Z,1011.61
2022-10-03T17:00:04.251Z,1011.52
2022-10-03T17:05:03.285Z,1011.37
2022-10-03T17:10:04.099Z,1011.29
2022-10-03T17:15:03.250Z,1011.16
2022-10-03T17:20:04.136Z,1011.02
2022-10-03T17:25:03.274Z,1010.92
2022-10-03T17:30:05.723Z,1010.82
2022-10-03T17:35:03.295Z,1010.76
2022-10-03T17:40:04.083Z,1010.67
2022-10-03T17:45:03.163Z,1010.65
2022-10-03T17:50:04.047Z,1010.56
2022-10-03T17:55:03.199Z,1010.45
2022-10-03T18:00:04.931Z,1010.41
2022-10-03T18:05:03.299Z,1010.37
2022-10-03T18:10:04.016Z,1010.3
2022-10-03T18:15:03.155Z,1010.25
2022-10-03T18:20:04.187Z,1010.17
2022-10-03T18:25:03.237Z,1010.04
2022-10-03T18:30:04.361Z,1010.08
2022-10-03T18:35:03.295Z,1010.03
2022-10-03T18:40:03.991Z,1009.95
2022-10-03T18:45:03.217Z,1009.96
2022-10-03T18:50:04.082Z,1009.85
2022-10-03T18:55:03.203Z,1009.72
2022-10-03T19:00:06.064Z,1009.65
2022-10-03T19:05:03.255Z,1009.58
2022-10-03T19:10:04.065Z,1009.56
2022-10-03T19:15:03.105Z,1009.52
2022-10-03T19:20:04.014Z,1009.45
2022-10-03T19:25:03.302Z,1009.42
2022-10-03T19:30:04.327Z,1009.4
2022-10-03T19:35:03.267Z,1009.34
2022-10-03T19:40:04.084Z,1009.37
2022-10-03T19:45:03.101Z,1009.34
2022-10-03T19:50:03.956Z,1009.35
2022-10-03T19:55:03.249Z,1009.34
2022-10-03T20:00:09.486Z,1009.28
2022-10-03T20:05:03.278Z,1009.37
2022-10-03T20:10:03.991Z,1009.34
2022-10-03T20:15:03.315Z,1009.28
2022-10-03T20:20:03.946Z,1009.24
2022-10-03T20:25:03.342Z,1009.31
2022-10-03T20:30:04.972Z,1009.39
2022-10-03T20:35:03.265Z,1009.41
2022-10-03T20:40:04.087Z,1009.44
2022-10-03T20:45:03.124Z,1009.51
2022-10-03T20:50:04.103Z,1009.53
2022-10-03T20:55:03.220Z,1009.54
2022-10-03T21:00:04.608Z,1009.56
2022-10-03T21:05:03.284Z,1009.6
2022-10-03T21:10:04.135Z,1009.61
2022-10-03T21:15:03.240Z,1009.59
2022-10-03T21:20:04.067Z,1009.6
2022-10-03T21:25:03.188Z,1009.61
2022-10-03T21:30:05.117Z,1009.61
2022-10-03T21:35:03.276Z,1009.64
2022-10-03T21:40:05.198Z,1009.67
2022-10-03T21:45:03.152Z,1009.67
2022-10-03T21:50:04.117Z,1009.7
2022-10-03T21:55:03.201Z,1009.76
2022-10-03T22:00:05.404Z,1009.83
2022-10-03T22:05:03.250Z,1009.85
2022-10-03T22:10:04.102Z,1009.95
2022-10-03T22:15:03.341Z,1009.99
2022-10-03T22:20:04.111Z,1010.0
2022-10-03T22:25:03.252Z,1010.0
2022-10-03T22:30:04.090Z,1009.98
2022-10-03T22:35:04.814Z,1009.96
2022-10-03T22:40:04.144Z,1010.03
2022-10-03T22:45:03.384Z,1010.07
2022-10-03T22:50:04.163Z,1010.1
2022-10-03T22:55:03.272Z,1010.13
2022-10-03T23:00:05.828Z,1010.13
2022-10-03T23:05:03.344Z,1010.13
2022-10-03T23:10:04.054Z,1010.21
2022-10-03T23:15:03.193Z,1010.23
2022-10-03T23:20:04.272Z,1010.25
2022-10-03T23:25:03.378Z,1010.26
2022-10-03T23:30:04.308Z,1010.3
2022-10-03T23:35:03.269Z,1010.32
2022-10-03T23:40:04.084Z,1010.41
2022-10-03T23:45:03.345Z,1010.46
2022-10-03T23:50:04.657Z,1010.46
2022-10-03T23:55:03.173Z,1010.47
